sensor_id;sensor_type;location;lat;lon;timestamp;temperature;humidity
10873;DHT22;34586;53.616;10.032;2024-01-11T00:01:26;-0.40;99.90
10873;DHT22;34586;53.616;10.032;2024-01-11T00:03:52;-0.40;99.90
10873;DHT22;34586;53.616;10.032;2024-01-11T00:06:18;-0.40;99.90
10873;DHT22;34586;53.616;10.032;2024-01-11T00:08:43;-0.30;99.90
10873;DHT22;34586;53.616;10.032;2024-01-11T00:11:09;-0.30;99.90
10873;DHT22;34586;53.616;10.032;2024-01-11T00:13:34;-0.30;99.90
10873;DHT22;34586;53.616;10.032;2024-01-11T00:16:00;-0.30;99.90
10873;DHT22;34586;53.616;10.032;2024-01-11T00:18:25;-0.30;99.90
10873;DHT22;34586;53.616;10.032;2024-01-11T00:20:51;-0.40;99.90
10873;DHT22;34586;53.616;10.032;2024-01-11T00:23:17;-0.30;99.90
10873;DHT22;34586;53.616;10.032;2024-01-11T00:25:42;-0.30;99.90
10873;DHT22;34586;53.616;10.032;2024-01-11T00:28:08;-0.30;99.90
10873;DHT22;34586;53.616;10.032;2024-01-11T00:30:34;-0.30;99.90
10873;DHT22;34586;53.616;10.032;2024-01-11T00:32:59;-0.20;99.90
10873;DHT22;34586;53.616;10.032;2024-01-11T00:35:25;-0.20;99.90
10873;DHT22;34586;53.616;10.032;2024-01-11T00:37:50;-0.30;99.90
10873;DHT22;34586;53.616;10.032;2024-01-11T00:40:16;-0.30;99.90
10873;DHT22;34586;53.616;10.032;2024-01-11T00:42:41;-0.40;99.90
10873;DHT22;34586;53.616;10.032;2024-01-11T00:45:07;-0.50;99.90
10873;DHT22;34586;53.616;10.032;2024-01-11T00:47:33;-0.40;99.90
10873;DHT22;34586;53.616;10.032;2024-01-11T00:49:58;-0.40;99.90
10873;DHT22;34586;53.616;10.032;2024-01-11T00:52:24;-0.40;99.90
10873;DHT22;34586;53.616;10.032;2024-01-11T00:54:50;-0.50;99.90
10873;DHT22;34586;53.616;10.032;2024-01-11T00:57:15;-0.60;99.90
10873;DHT22;34586;53.616;10.032;2024-01-11T00:59:41;-0.50;99.90
10873;DHT22;34586;53.616;10.032;2024-01-11T01:02:06;-0.50;99.90
10873;DHT22;34586;53.616;10.032;2024-01-11T01:04:32;-0.50;99.90
10873;DHT22;34586;53.616;10.032;2024-01-11T01:06:57;-0.50;99.90
10873;DHT22;34586;53.616;10.032;2024-01-11T01:09:23;-0.60;99.90
10873;DHT22;34586;53.616;10.032;2024-01-11T01:11:49;-0.50;99.90
10873;DHT22;34586;53.616;10.032;2024-01-11T01:14:14;-0.50;99.90
10873;DHT22;34586;53.616;10.032;2024-01-11T01:16:40;-0.60;99.90
10873;DHT22;34586;53.616;10.032;2024-01-11T01:19:06;-0.50;99.90
10873;DHT22;34586;53.616;10.032;2024-01-11T01:21:31;-0.50;99.90
10873;DHT22;34586;53.616;10.032;2024-01-11T01:23:57;-0.60;99.90
10873;DHT22;34586;53.616;10.032;2024-01-11T01:26:22;-0.60;99.90
10873;DHT22;34586;53.616;10.032;2024-01-11T01:28:48;-0.60;99.90
10873;DHT22;34586;53.616;10.032;2024-01-11T01:31:14;-0.60;99.90
10873;DHT22;34586;53.616;10.032;2024-01-11T01:33:42;-0.60;99.90
10873;DHT22;34586;53.616;10.032;2024-01-11T01:36:09;-0.60;99.90
10873;DHT22;34586;53.616;10.032;2024-01-11T01:38:35;-0.60;99.90
10873;DHT22;34586;53.616;10.032;2024-01-11T01:41:01;-0.40;99.90
10873;DHT22;34586;53.616;10.032;2024-01-11T01:43:26;-0.40;99.90
10873;DHT22;34586;53.616;10.032;2024-01-11T01:45:52;-0.50;99.90
10873;DHT22;34586;53.616;10.032;2024-01-11T01:48:18;-0.60;99.90
10873;DHT22;34586;53.616;10.032;2024-01-11T01:50:44;-0.60;99.90
10873;DHT22;34586;53.616;10.032;2024-01-11T01:53:22;-0.70;99.90
10873;DHT22;34586;53.616;10.032;2024-01-11T01:55:49;-0.70;99.90
10873;DHT22;34586;53.616;10.032;2024-01-11T01:58:16;-0.70;99.90
10873;DHT22;34586;53.616;10.032;2024-01-11T02:00:44;-0.60;99.90
10873;DHT22;34586;53.616;10.032;2024-01-11T02:03:10;-0.60;99.90
10873;DHT22;34586;53.616;10.032;2024-01-11T02:05:36;-0.70;99.90
10873;DHT22;34586;53.616;10.032;2024-01-11T02:08:04;-0.70;99.90
10873;DHT22;34586;53.616;10.032;2024-01-11T02:10:33;-0.70;99.90
10873;DHT22;34586;53.616;10.032;2024-01-11T02:13:00;-0.60;99.90
10873;DHT22;34586;53.616;10.032;2024-01-11T02:15:25;-0.60;99.90
10873;DHT22;34586;53.616;10.032;2024-01-11T02:17:51;-0.60;99.90
10873;DHT22;34586;53.616;10.032;2024-01-11T02:20:16;-0.60;99.90
10873;DHT22;34586;53.616;10.032;2024-01-11T02:22:46;-0.60;99.90
10873;DHT22;34586;53.616;10.032;2024-01-11T02:25:13;-0.60;99.90
10873;DHT22;34586;53.616;10.032;2024-01-11T02:27:49;-0.60;99.90
10873;DHT22;34586;53.616;10.032;2024-01-11T02:30:15;-0.70;99.90
10873;DHT22;34586;53.616;10.032;2024-01-11T02:32:43;-0.70;99.90
10873;DHT22;34586;53.616;10.032;2024-01-11T02:35:15;-0.70;99.90
10873;DHT22;34586;53.616;10.032;2024-01-11T02:37:41;-0.80;99.90
10873;DHT22;34586;53.616;10.032;2024-01-11T02:40:08;-0.80;99.90
10873;DHT22;34586;53.616;10.032;2024-01-11T02:42:34;-0.70;99.90
10873;DHT22;34586;53.616;10.032;2024-01-11T02:45:01;-0.70;99.90
10873;DHT22;34586;53.616;10.032;2024-01-11T02:47:28;-0.60;99.90
10873;DHT22;34586;53.616;10.032;2024-01-11T02:49:54;-0.50;99.90
10873;DHT22;34586;53.616;10.032;2024-01-11T02:52:19;-0.60;99.90
10873;DHT22;34586;53.616;10.032;2024-01-11T02:54:45;-0.70;99.90
10873;DHT22;34586;53.616;10.032;2024-01-11T02:57:10;-0.70;99.90
10873;DHT22;34586;53.616;10.032;2024-01-11T02:59:36;-0.70;99.90
10873;DHT22;34586;53.616;10.032;2024-01-11T03:02:02;-0.70;99.90
10873;DHT22;34586;53.616;10.032;2024-01-11T03:04:27;-0.70;99.90
10873;DHT22;34586;53.616;10.032;2024-01-11T03:06:53;-0.70;99.90
10873;DHT22;34586;53.616;10.032;2024-01-11T03:09:18;-0.70;99.90
10873;DHT22;34586;53.616;10.032;2024-01-11T03:11:44;-0.70;99.90
10873;DHT22;34586;53.616;10.032;2024-01-11T03:14:09;-0.70;99.90
10873;DHT22;34586;53.616;10.032;2024-01-11T03:16:35;-0.60;99.90
10873;DHT22;34586;53.616;10.032;2024-01-11T03:19:01;-0.60;99.90
10873;DHT22;34586;53.616;10.032;2024-01-11T03:21:26;-0.60;99.90
10873;DHT22;34586;53.616;10.032;2024-01-11T03:23:52;-0.50;99.90
10873;DHT22;34586;53.616;10.032;2024-01-11T03:26:18;-0.50;99.90
10873;DHT22;34586;53.616;10.032;2024-01-11T03:28:43;-0.50;99.90
10873;DHT22;34586;53.616;10.032;2024-01-11T03:31:10;-0.50;99.90
10873;DHT22;34586;53.616;10.032;2024-01-11T03:33:36;-0.50;99.90
10873;DHT22;34586;53.616;10.032;2024-01-11T03:36:11;-0.50;99.90
10873;DHT22;34586;53.616;10.032;2024-01-11T03:38:37;-0.50;99.90
10873;DHT22;34586;53.616;10.032;2024-01-11T03:41:08;-0.40;99.90
10873;DHT22;34586;53.616;10.032;2024-01-11T03:43:35;-0.40;99.90
10873;DHT22;34586;53.616;10.032;2024-01-11T03:46:01;-0.40;99.90
10873;DHT22;34586;53.616;10.032;2024-01-11T03:48:26;-0.40;99.90
10873;DHT22;34586;53.616;10.032;2024-01-11T03:50:52;-0.50;99.90
10873;DHT22;34586;53.616;10.032;2024-01-11T03:53:18;-0.40;99.90
10873;DHT22;34586;53.616;10.032;2024-01-11T03:55:43;-0.40;99.90
10873;DHT22;34586;53.616;10.032;2024-01-11T03:58:09;-0.40;99.90
10873;DHT22;34586;53.616;10.032;2024-01-11T04:00:34;-0.40;99.90
10873;DHT22;34586;53.616;10.032;2024-01-11T04:03:00;-0.50;99.90
10873;DHT22;34586;53.616;10.032;2024-01-11T04:05:27;-0.60;99.90
10873;DHT22;34586;53.616;10.032;2024-01-11T04:07:52;-0.60;99.90
10873;DHT22;34586;53.616;10.032;2024-01-11T04:10:18;-0.60;99.90
10873;DHT22;34586;53.616;10.032;2024-01-11T04:12:44;-0.60;99.90
10873;DHT22;34586;53.616;10.032;2024-01-11T04:15:12;-0.60;99.90
10873;DHT22;34586;53.616;10.032;2024-01-11T04:17:39;-0.60;99.90
10873;DHT22;34586;53.616;10.032;2024-01-11T04:20:06;-0.60;99.90
10873;DHT22;34586;53.616;10.032;2024-01-11T04:22:32;-0.50;99.90
10873;DHT22;34586;53.616;10.032;2024-01-11T04:24:57;-0.50;99.90
10873;DHT22;34586;53.616;10.032;2024-01-11T04:27:23;-0.50;99.90
10873;DHT22;34586;53.616;10.032;2024-01-11T04:29:49;-0.50;99.90
10873;DHT22;34586;53.616;10.032;2024-01-11T04:32:15;-0.40;99.90
10873;DHT22;34586;53.616;10.032;2024-01-11T04:34:40;-0.40;99.90
10873;DHT22;34586;53.616;10.032;2024-01-11T04:37:06;-0.40;99.90
10873;DHT22;34586;53.616;10.032;2024-01-11T04:39:32;-0.40;99.90
10873;DHT22;34586;53.616;10.032;2024-01-11T04:41:57;-0.40;99.90
10873;DHT22;34586;53.616;10.032;2024-01-11T04:44:23;-0.40;99.90
10873;DHT22;34586;53.616;10.032;2024-01-11T04:46:48;-0.40;99.90
10873;DHT22;34586;53.616;10.032;2024-01-11T04:49:14;-0.50;99.90
10873;DHT22;34586;53.616;10.032;2024-01-11T04:51:39;-0.50;99.90
10873;DHT22;34586;53.616;10.032;2024-01-11T04:54:05;-0.50;99.90
10873;DHT22;34586;53.616;10.032;2024-01-11T04:56:31;-0.50;99.90
10873;DHT22;34586;53.616;10.032;2024-01-11T04:58:57;-0.50;99.90
10873;DHT22;34586;53.616;10.032;2024-01-11T05:01:22;-0.50;99.90
10873;DHT22;34586;53.616;10.032;2024-01-11T05:03:48;-0.50;99.90
10873;DHT22;34586;53.616;10.032;2024-01-11T05:06:21;-0.50;99.90
10873;DHT22;34586;53.616;10.032;2024-01-11T05:08:49;-0.50;99.90
10873;DHT22;34586;53.616;10.032;2024-01-11T05:11:19;-0.60;99.90
10873;DHT22;34586;53.616;10.032;2024-01-11T05:13:44;-0.50;99.90
10873;DHT22;34586;53.616;10.032;2024-01-11T05:18:48;-0.50;99.90
10873;DHT22;34586;53.616;10.032;2024-01-11T05:21:14;-0.50;99.90
10873;DHT22;34586;53.616;10.032;2024-01-11T05:23:41;-0.60;99.90
10873;DHT22;34586;53.616;10.032;2024-01-11T05:26:08;-0.60;99.90
10873;DHT22;34586;53.616;10.032;2024-01-11T05:28:34;-0.60;99.90
10873;DHT22;34586;53.616;10.032;2024-01-11T05:30:59;-0.70;99.90
10873;DHT22;34586;53.616;10.032;2024-01-11T05:33:25;-0.70;99.90
10873;DHT22;34586;53.616;10.032;2024-01-11T05:35:51;-0.70;99.90
10873;DHT22;34586;53.616;10.032;2024-01-11T05:38:17;-0.70;99.90
10873;DHT22;34586;53.616;10.032;2024-01-11T05:40:43;-0.60;99.90
10873;DHT22;34586;53.616;10.032;2024-01-11T05:43:08;-0.60;99.90
10873;DHT22;34586;53.616;10.032;2024-01-11T05:45:34;-0.60;99.90
10873;DHT22;34586;53.616;10.032;2024-01-11T05:47:59;-0.60;99.90
10873;DHT22;34586;53.616;10.032;2024-01-11T05:50:25;-0.50;99.90
10873;DHT22;34586;53.616;10.032;2024-01-11T05:52:52;-0.50;99.90
10873;DHT22;34586;53.616;10.032;2024-01-11T05:55:19;-0.50;99.90
10873;DHT22;34586;53.616;10.032;2024-01-11T05:57:45;-0.50;99.90
10873;DHT22;34586;53.616;10.032;2024-01-11T06:00:11;-0.50;99.90
10873;DHT22;34586;53.616;10.032;2024-01-11T06:02:37;-0.50;99.90
10873;DHT22;34586;53.616;10.032;2024-01-11T06:05:03;-0.40;99.90
10873;DHT22;34586;53.616;10.032;2024-01-11T06:07:28;-0.40;99.90
10873;DHT22;34586;53.616;10.032;2024-01-11T06:09:54;-0.40;99.90
10873;DHT22;34586;53.616;10.032;2024-01-11T06:12:20;-0.40;99.90
10873;DHT22;34586;53.616;10.032;2024-01-11T06:14:46;-0.40;99.90
10873;DHT22;34586;53.616;10.032;2024-01-11T06:17:11;-0.40;99.90
10873;DHT22;34586;53.616;10.032;2024-01-11T06:19:37;-0.40;99.90
10873;DHT22;34586;53.616;10.032;2024-01-11T06:22:04;-0.40;99.90
10873;DHT22;34586;53.616;10.032;2024-01-11T06:24:31;-0.40;99.90
10873;DHT22;34586;53.616;10.032;2024-01-11T06:26:56;-0.50;99.90
10873;DHT22;34586;53.616;10.032;2024-01-11T06:29:22;-0.50;99.90
10873;DHT22;34586;53.616;10.032;2024-01-11T06:31:47;-0.50;99.90
10873;DHT22;34586;53.616;10.032;2024-01-11T06:34:13;-0.40;99.90
10873;DHT22;34586;53.616;10.032;2024-01-11T06:36:38;-0.50;99.90
10873;DHT22;34586;53.616;10.032;2024-01-11T06:39:04;-0.40;99.90
10873;DHT22;34586;53.616;10.032;2024-01-11T06:41:30;-0.40;99.90
10873;DHT22;34586;53.616;10.032;2024-01-11T06:43:56;-0.40;99.90
10873;DHT22;34586;53.616;10.032;2024-01-11T06:46:21;-0.40;99.90
10873;DHT22;34586;53.616;10.032;2024-01-11T06:48:48;-0.40;99.90
10873;DHT22;34586;53.616;10.032;2024-01-11T06:51:21;-0.30;99.90
10873;DHT22;34586;53.616;10.032;2024-01-11T06:53:47;-0.40;99.90
10873;DHT22;34586;53.616;10.032;2024-01-11T06:56:17;-0.30;99.90
10873;DHT22;34586;53.616;10.032;2024-01-11T06:58:44;-0.30;99.90
10873;DHT22;34586;53.616;10.032;2024-01-11T07:01:10;-0.30;99.90
10873;DHT22;34586;53.616;10.032;2024-01-11T07:03:36;-0.30;99.90
10873;DHT22;34586;53.616;10.032;2024-01-11T07:06:01;-0.30;99.90
10873;DHT22;34586;53.616;10.032;2024-01-11T07:08:28;-0.20;99.90
10873;DHT22;34586;53.616;10.032;2024-01-11T07:10:54;-0.30;99.90
10873;DHT22;34586;53.616;10.032;2024-01-11T07:13:19;-0.20;99.90
10873;DHT22;34586;53.616;10.032;2024-01-11T07:15:45;-0.20;99.90
10873;DHT22;34586;53.616;10.032;2024-01-11T07:18:11;-0.20;99.90
10873;DHT22;34586;53.616;10.032;2024-01-11T07:20:37;-0.20;99.90
10873;DHT22;34586;53.616;10.032;2024-01-11T07:23:02;-0.10;99.90
10873;DHT22;34586;53.616;10.032;2024-01-11T07:25:28;-0.20;99.90
10873;DHT22;34586;53.616;10.032;2024-01-11T07:27:53;-0.20;99.90
10873;DHT22;34586;53.616;10.032;2024-01-11T07:30:19;-0.10;99.90
10873;DHT22;34586;53.616;10.032;2024-01-11T07:32:45;-0.20;99.90
10873;DHT22;34586;53.616;10.032;2024-01-11T07:35:10;-0.10;99.90
10873;DHT22;34586;53.616;10.032;2024-01-11T07:37:38;-0.10;99.90
10873;DHT22;34586;53.616;10.032;2024-01-11T07:40:04;-0.10;99.90
10873;DHT22;34586;53.616;10.032;2024-01-11T07:42:30;0.00;99.90
10873;DHT22;34586;53.616;10.032;2024-01-11T07:44:56;0.00;99.90
10873;DHT22;34586;53.616;10.032;2024-01-11T07:47:21;0.10;99.90
10873;DHT22;34586;53.616;10.032;2024-01-11T07:49:47;0.00;99.90
10873;DHT22;34586;53.616;10.032;2024-01-11T07:52:13;0.10;99.90
10873;DHT22;34586;53.616;10.032;2024-01-11T07:54:39;0.00;99.90
10873;DHT22;34586;53.616;10.032;2024-01-11T07:57:05;0.10;99.90
10873;DHT22;34586;53.616;10.032;2024-01-11T07:59:33;0.00;99.90
10873;DHT22;34586;53.616;10.032;2024-01-11T08:02:01;0.00;99.90
10873;DHT22;34586;53.616;10.032;2024-01-11T08:04:27;0.10;99.90
10873;DHT22;34586;53.616;10.032;2024-01-11T08:06:53;0.10;99.90
10873;DHT22;34586;53.616;10.032;2024-01-11T08:09:18;0.10;99.90
10873;DHT22;34586;53.616;10.032;2024-01-11T08:11:44;0.20;99.90
10873;DHT22;34586;53.616;10.032;2024-01-11T08:14:11;0.30;99.90
10873;DHT22;34586;53.616;10.032;2024-01-11T08:16:37;0.30;99.90
10873;DHT22;34586;53.616;10.032;2024-01-11T08:19:03;0.30;99.90
10873;DHT22;34586;53.616;10.032;2024-01-11T08:21:29;0.40;99.90
10873;DHT22;34586;53.616;10.032;2024-01-11T08:23:54;0.30;99.90
10873;DHT22;34586;53.616;10.032;2024-01-11T08:26:20;0.40;99.90
10873;DHT22;34586;53.616;10.032;2024-01-11T08:28:47;0.40;99.90
10873;DHT22;34586;53.616;10.032;2024-01-11T08:31:13;0.50;99.90
10873;DHT22;34586;53.616;10.032;2024-01-11T08:33:39;0.50;99.90
10873;DHT22;34586;53.616;10.032;2024-01-11T08:36:05;0.50;99.90
10873;DHT22;34586;53.616;10.032;2024-01-11T08:38:32;0.60;99.90
10873;DHT22;34586;53.616;10.032;2024-01-11T08:40:57;0.60;99.90
10873;DHT22;34586;53.616;10.032;2024-01-11T08:43:25;0.60;99.90
10873;DHT22;34586;53.616;10.032;2024-01-11T08:45:50;0.70;99.90
10873;DHT22;34586;53.616;10.032;2024-01-11T08:48:16;0.80;99.90
10873;DHT22;34586;53.616;10.032;2024-01-11T08:50:42;0.80;99.90
10873;DHT22;34586;53.616;10.032;2024-01-11T08:53:08;0.80;99.90
10873;DHT22;34586;53.616;10.032;2024-01-11T08:55:34;0.90;99.90
10873;DHT22;34586;53.616;10.032;2024-01-11T08:57:59;0.90;99.90
10873;DHT22;34586;53.616;10.032;2024-01-11T09:00:26;0.90;99.90
10873;DHT22;34586;53.616;10.032;2024-01-11T09:02:52;0.90;99.90
10873;DHT22;34586;53.616;10.032;2024-01-11T09:05:17;0.90;99.90
10873;DHT22;34586;53.616;10.032;2024-01-11T09:07:43;0.90;99.90
10873;DHT22;34586;53.616;10.032;2024-01-11T09:10:09;0.90;99.90
10873;DHT22;34586;53.616;10.032;2024-01-11T09:12:35;0.90;99.90
10873;DHT22;34586;53.616;10.032;2024-01-11T09:15:02;0.90;99.90
10873;DHT22;34586;53.616;10.032;2024-01-11T09:17:27;1.00;99.90
10873;DHT22;34586;53.616;10.032;2024-01-11T09:19:53;1.00;99.90
10873;DHT22;34586;53.616;10.032;2024-01-11T09:22:19;1.00;99.90
10873;DHT22;34586;53.616;10.032;2024-01-11T09:24:44;1.10;99.90
10873;DHT22;34586;53.616;10.032;2024-01-11T09:27:10;1.10;99.90
10873;DHT22;34586;53.616;10.032;2024-01-11T09:29:36;1.00;99.90
10873;DHT22;34586;53.616;10.032;2024-01-11T09:32:01;1.10;99.90
10873;DHT22;34586;53.616;10.032;2024-01-11T09:34:27;1.10;99.90
10873;DHT22;34586;53.616;10.032;2024-01-11T09:36:53;1.20;99.90
10873;DHT22;34586;53.616;10.032;2024-01-11T09:39:18;1.20;99.90
10873;DHT22;34586;53.616;10.032;2024-01-11T09:41:57;1.30;99.90
10873;DHT22;34586;53.616;10.032;2024-01-11T09:44:24;1.30;99.90
10873;DHT22;34586;53.616;10.032;2024-01-11T09:46:51;1.30;99.90
10873;DHT22;34586;53.616;10.032;2024-01-11T09:49:19;1.40;99.90
10873;DHT22;34586;53.616;10.032;2024-01-11T09:51:47;1.30;99.90
10873;DHT22;34586;53.616;10.032;2024-01-11T09:54:14;1.40;99.90
10873;DHT22;34586;53.616;10.032;2024-01-11T09:56:41;1.40;99.90
10873;DHT22;34586;53.616;10.032;2024-01-11T09:59:06;1.50;99.90
10873;DHT22;34586;53.616;10.032;2024-01-11T10:01:35;1.50;99.90
10873;DHT22;34586;53.616;10.032;2024-01-11T10:04:02;1.50;99.90
10873;DHT22;34586;53.616;10.032;2024-01-11T10:06:30;1.50;99.90
10873;DHT22;34586;53.616;10.032;2024-01-11T10:08:56;1.50;99.90
10873;DHT22;34586;53.616;10.032;2024-01-11T10:11:22;1.50;99.90
10873;DHT22;34586;53.616;10.032;2024-01-11T10:13:47;1.50;99.90
10873;DHT22;34586;53.616;10.032;2024-01-11T10:16:14;1.60;99.90
10873;DHT22;34586;53.616;10.032;2024-01-11T10:18:41;1.60;99.90
10873;DHT22;34586;53.616;10.032;2024-01-11T10:21:07;1.50;99.90
10873;DHT22;34586;53.616;10.032;2024-01-11T10:23:38;1.50;99.90
10873;DHT22;34586;53.616;10.032;2024-01-11T10:26:04;1.50;99.90
10873;DHT22;34586;53.616;10.032;2024-01-11T10:28:30;1.60;99.90
10873;DHT22;34586;53.616;10.032;2024-01-11T10:30:56;1.60;99.90
10873;DHT22;34586;53.616;10.032;2024-01-11T10:33:23;1.60;99.90
10873;DHT22;34586;53.616;10.032;2024-01-11T10:35:49;1.60;99.90
10873;DHT22;34586;53.616;10.032;2024-01-11T10:38:15;1.60;99.90
10873;DHT22;34586;53.616;10.032;2024-01-11T10:40:42;1.70;99.90
10873;DHT22;34586;53.616;10.032;2024-01-11T10:43:11;1.70;99.90
10873;DHT22;34586;53.616;10.032;2024-01-11T10:45:38;1.70;99.90
10873;DHT22;34586;53.616;10.032;2024-01-11T10:48:13;1.70;99.90
10873;DHT22;34586;53.616;10.032;2024-01-11T10:50:42;1.80;99.90
10873;DHT22;34586;53.616;10.032;2024-01-11T10:55:59;1.80;99.90
10873;DHT22;34586;53.616;10.032;2024-01-11T10:58:28;1.80;99.90
10873;DHT22;34586;53.616;10.032;2024-01-11T11:00:54;1.80;99.90
10873;DHT22;34586;53.616;10.032;2024-01-11T11:03:22;1.90;99.90
10873;DHT22;34586;53.616;10.032;2024-01-11T11:05:48;1.90;99.90
10873;DHT22;34586;53.616;10.032;2024-01-11T11:08:17;1.90;99.90
10873;DHT22;34586;53.616;10.032;2024-01-11T11:10:44;1.90;99.90
10873;DHT22;34586;53.616;10.032;2024-01-11T11:13:14;1.80;99.90
10873;DHT22;34586;53.616;10.032;2024-01-11T11:15:42;1.80;99.90
10873;DHT22;34586;53.616;10.032;2024-01-11T11:18:12;1.80;99.90
10873;DHT22;34586;53.616;10.032;2024-01-11T11:20:39;1.80;99.90
10873;DHT22;34586;53.616;10.032;2024-01-11T11:23:06;1.80;99.90
10873;DHT22;34586;53.616;10.032;2024-01-11T11:25:32;1.90;99.90
10873;DHT22;34586;53.616;10.032;2024-01-11T11:27:58;1.90;99.90
10873;DHT22;34586;53.616;10.032;2024-01-11T11:30:27;2.00;99.90
10873;DHT22;34586;53.616;10.032;2024-01-11T11:32:54;1.90;99.90
10873;DHT22;34586;53.616;10.032;2024-01-11T11:35:22;1.90;99.90
10873;DHT22;34586;53.616;10.032;2024-01-11T11:37:48;1.90;99.90
10873;DHT22;34586;53.616;10.032;2024-01-11T11:40:15;2.00;99.90
10873;DHT22;34586;53.616;10.032;2024-01-11T11:42:42;2.00;99.90
10873;DHT22;34586;53.616;10.032;2024-01-11T11:45:08;2.00;99.90
10873;DHT22;34586;53.616;10.032;2024-01-11T11:47:37;2.10;99.90
10873;DHT22;34586;53.616;10.032;2024-01-11T11:50:08;2.10;99.90
10873;DHT22;34586;53.616;10.032;2024-01-11T11:52:37;2.20;99.90
10873;DHT22;34586;53.616;10.032;2024-01-11T11:55:03;2.00;99.90
10873;DHT22;34586;53.616;10.032;2024-01-11T11:57:29;2.00;99.90
10873;DHT22;34586;53.616;10.032;2024-01-11T11:59:56;2.00;99.90
10873;DHT22;34586;53.616;10.032;2024-01-11T12:02:28;2.00;99.90
10873;DHT22;34586;53.616;10.032;2024-01-11T12:04:54;2.10;99.90
10873;DHT22;34586;53.616;10.032;2024-01-11T12:07:20;2.10;99.90
10873;DHT22;34586;53.616;10.032;2024-01-11T12:09:47;2.10;99.90
10873;DHT22;34586;53.616;10.032;2024-01-11T12:12:13;2.10;99.90
10873;DHT22;34586;53.616;10.032;2024-01-11T12:14:38;2.20;99.90
10873;DHT22;34586;53.616;10.032;2024-01-11T12:17:06;2.20;99.90
10873;DHT22;34586;53.616;10.032;2024-01-11T12:19:31;2.20;99.90
10873;DHT22;34586;53.616;10.032;2024-01-11T12:21:58;2.20;99.90
10873;DHT22;34586;53.616;10.032;2024-01-11T12:24:23;2.20;99.90
10873;DHT22;34586;53.616;10.032;2024-01-11T12:26:50;2.20;99.90
10873;DHT22;34586;53.616;10.032;2024-01-11T12:29:20;2.20;99.90
10873;DHT22;34586;53.616;10.032;2024-01-11T12:31:46;2.30;99.90
10873;DHT22;34586;53.616;10.032;2024-01-11T12:34:12;2.40;99.90
10873;DHT22;34586;53.616;10.032;2024-01-11T12:36:38;2.40;99.90
10873;DHT22;34586;53.616;10.032;2024-01-11T12:39:03;2.40;99.90
10873;DHT22;34586;53.616;10.032;2024-01-11T12:41:34;2.50;99.90
10873;DHT22;34586;53.616;10.032;2024-01-11T12:44:00;2.50;99.90
10873;DHT22;34586;53.616;10.032;2024-01-11T12:46:26;2.40;99.90
10873;DHT22;34586;53.616;10.032;2024-01-11T12:48:51;2.50;99.90
10873;DHT22;34586;53.616;10.032;2024-01-11T12:51:17;2.50;99.90
10873;DHT22;34586;53.616;10.032;2024-01-11T12:53:47;2.50;99.90
10873;DHT22;34586;53.616;10.032;2024-01-11T12:56:15;2.50;99.90
10873;DHT22;34586;53.616;10.032;2024-01-11T12:58:42;2.60;99.90
10873;DHT22;34586;53.616;10.032;2024-01-11T13:01:08;2.60;99.90
10873;DHT22;34586;53.616;10.032;2024-01-11T13:03:35;2.60;99.90
10873;DHT22;34586;53.616;10.032;2024-01-11T13:06:02;2.80;99.90
10873;DHT22;34586;53.616;10.032;2024-01-11T13:08:30;2.60;99.90
10873;DHT22;34586;53.616;10.032;2024-01-11T13:10:56;2.70;99.90
10873;DHT22;34586;53.616;10.032;2024-01-11T13:13:22;2.60;99.90
10873;DHT22;34586;53.616;10.032;2024-01-11T13:15:49;2.70;99.90
10873;DHT22;34586;53.616;10.032;2024-01-11T13:18:16;2.70;99.90
10873;DHT22;34586;53.616;10.032;2024-01-11T13:20:41;2.70;99.90
10873;DHT22;34586;53.616;10.032;2024-01-11T13:23:15;2.70;99.90
10873;DHT22;34586;53.616;10.032;2024-01-11T13:25:44;2.80;99.90
10873;DHT22;34586;53.616;10.032;2024-01-11T13:28:10;2.90;99.90
10873;DHT22;34586;53.616;10.032;2024-01-11T13:30:41;2.90;99.90
10873;DHT22;34586;53.616;10.032;2024-01-11T13:33:08;2.90;99.90
10873;DHT22;34586;53.616;10.032;2024-01-11T13:35:34;2.90;99.90
10873;DHT22;34586;53.616;10.032;2024-01-11T13:38:01;2.80;99.90
10873;DHT22;34586;53.616;10.032;2024-01-11T13:40:26;2.90;99.90
10873;DHT22;34586;53.616;10.032;2024-01-11T13:42:54;2.80;99.90
10873;DHT22;34586;53.616;10.032;2024-01-11T13:45:21;2.80;99.90
10873;DHT22;34586;53.616;10.032;2024-01-11T13:47:46;2.70;99.90
10873;DHT22;34586;53.616;10.032;2024-01-11T13:50:12;2.70;99.90
10873;DHT22;34586;53.616;10.032;2024-01-11T13:52:38;2.80;99.90
10873;DHT22;34586;53.616;10.032;2024-01-11T13:55:04;2.80;99.90
10873;DHT22;34586;53.616;10.032;2024-01-11T13:57:29;2.80;99.90
10873;DHT22;34586;53.616;10.032;2024-01-11T13:59:55;2.80;99.90
10873;DHT22;34586;53.616;10.032;2024-01-11T14:02:21;2.80;99.90
10873;DHT22;34586;53.616;10.032;2024-01-11T14:04:46;2.80;99.90
10873;DHT22;34586;53.616;10.032;2024-01-11T14:07:12;2.90;99.90
10873;DHT22;34586;53.616;10.032;2024-01-11T14:09:38;2.90;99.90
10873;DHT22;34586;53.616;10.032;2024-01-11T14:12:04;2.80;99.90
10873;DHT22;34586;53.616;10.032;2024-01-11T14:14:29;2.80;99.90
10873;DHT22;34586;53.616;10.032;2024-01-11T14:16:55;2.80;99.90
10873;DHT22;34586;53.616;10.032;2024-01-11T14:19:20;2.80;99.90
10873;DHT22;34586;53.616;10.032;2024-01-11T14:21:46;2.80;99.90
10873;DHT22;34586;53.616;10.032;2024-01-11T14:24:12;2.70;99.90
10873;DHT22;34586;53.616;10.032;2024-01-11T14:26:38;2.70;99.90
10873;DHT22;34586;53.616;10.032;2024-01-11T14:29:04;2.70;99.90
10873;DHT22;34586;53.616;10.032;2024-01-11T14:31:30;2.70;99.90
10873;DHT22;34586;53.616;10.032;2024-01-11T14:33:55;2.70;99.90
10873;DHT22;34586;53.616;10.032;2024-01-11T14:36:21;2.70;99.90
10873;DHT22;34586;53.616;10.032;2024-01-11T14:38:47;2.70;99.90
10873;DHT22;34586;53.616;10.032;2024-01-11T14:41:13;2.70;99.90
10873;DHT22;34586;53.616;10.032;2024-01-11T14:43:39;2.70;99.90
10873;DHT22;34586;53.616;10.032;2024-01-11T14:46:04;2.60;99.90
10873;DHT22;34586;53.616;10.032;2024-01-11T14:48:30;2.60;99.90
10873;DHT22;34586;53.616;10.032;2024-01-11T14:50:57;2.60;99.90
10873;DHT22;34586;53.616;10.032;2024-01-11T14:53:22;2.60;99.90
10873;DHT22;34586;53.616;10.032;2024-01-11T14:55:48;2.60;99.90
10873;DHT22;34586;53.616;10.032;2024-01-11T14:58:15;2.60;99.90
10873;DHT22;34586;53.616;10.032;2024-01-11T15:00:42;2.60;99.90
10873;DHT22;34586;53.616;10.032;2024-01-11T15:03:08;2.60;99.90
10873;DHT22;34586;53.616;10.032;2024-01-11T15:05:33;2.70;99.90
10873;DHT22;34586;53.616;10.032;2024-01-11T15:07:59;2.70;99.90
10873;DHT22;34586;53.616;10.032;2024-01-11T15:10:25;2.70;99.90
10873;DHT22;34586;53.616;10.032;2024-01-11T15:12:50;2.70;99.90
10873;DHT22;34586;53.616;10.032;2024-01-11T15:15:16;2.70;99.90
10873;DHT22;34586;53.616;10.032;2024-01-11T15:17:43;2.70;99.90
10873;DHT22;34586;53.616;10.032;2024-01-11T15:20:09;2.70;99.90
10873;DHT22;34586;53.616;10.032;2024-01-11T15:22:35;2.70;99.90